Time,TemperatureF,DewpointF,PressureIn,WindDirection,WindDirectionDegrees,WindSpeedMPH,WindSpeedGustMPH,Humidity,HourlyPrecipIn,Conditions,Clouds,dailyrainin,SolarRadiationWatts/m^2,SoftwareType,DateUTC
2013-02-16 00:11:00,44.0,22.0,-100.00,SW,214,3.0,6.0,42,-99.99,,,0.00,0.000000,,2013-02-16 08:11:00,
2013-02-16 00:21:00,44.0,22.0,-100.00,SW,214,3.0,6.0,42,-99.99,,,0.00,0.000000,,2013-02-16 08:21:00,
2013-02-16 01:11:00,41.0,24.0,-100.00,North,359,5.0,6.0,51,-99.99,,,0.00,0.000000,,2013-02-16 09:11:00,
2013-02-16 01:21:00,41.0,24.0,-100.00,North,359,5.0,6.0,51,-99.99,,,0.00,0.000000,,2013-02-16 09:21:00,
2013-02-16 02:11:00,47.0,23.0,-100.00,NNW,328,6.0,8.0,39,-99.99,,,0.00,0.000000,,2013-02-16 10:11:00,
2013-02-16 02:21:00,47.0,23.0,-100.00,NNW,328,6.0,8.0,39,-99.99,,,0.00,0.000000,,2013-02-16 10:21:00,
2013-02-16 03:11:00,46.0,26.0,-100.00,NNW,332,6.0,8.0,45,-99.99,,,-99.99,0.000000,,2013-02-16 11:11:00,
2013-02-16 03:22:00,46.0,26.0,-100.00,NNW,332,6.0,8.0,45,-99.99,,,-99.99,0.000000,,2013-02-16 11:22:00,
2013-02-16 04:12:00,45.0,24.0,-100.00,NNW,348,8.0,10.0,43,-99.99,,,0.00,0.000000,,2013-02-16 12:12:00,
2013-02-16 04:22:00,45.0,24.0,-100.00,NNW,348,8.0,10.0,43,-99.99,,,0.00,0.000000,,2013-02-16 12:22:00,
2013-02-16 05:11:00,43.0,27.0,-100.00,NNW,340,6.0,9.0,53,-99.99,,,0.00,0.000000,,2013-02-16 13:11:00,
2013-02-16 05:21:00,43.0,27.0,-100.00,NNW,340,6.0,9.0,53,-99.99,,,0.00,0.000000,,2013-02-16 13:21:00,
2013-02-16 06:11:00,43.0,28.0,-100.00,NNW,343,6.0,7.0,54,-99.99,,,0.00,0.000000,,2013-02-16 14:11:00,
2013-02-16 07:11:00,42.0,27.0,-100.00,NNW,348,4.0,7.0,54,-99.99,,,0.00,15.000000,,2013-02-16 15:11:00,
2013-02-16 07:21:00,42.0,27.0,-100.00,NNW,348,4.0,7.0,54,-99.99,,,0.00,15.000000,,2013-02-16 15:21:00,
2013-02-16 08:11:00,53.0,26.0,-100.00,NNE,18,7.0,10.0,35,-99.99,,,0.00,212.000000,,2013-02-16 16:11:00,
2013-02-16 08:21:00,53.0,26.0,-100.00,NNE,18,7.0,10.0,35,-99.99,,,0.00,212.000000,,2013-02-16 16:21:00,
2013-02-16 08:32:00,53.0,26.0,-100.00,NNE,18,7.0,10.0,35,-99.99,,,0.00,212.000000,,2013-02-16 16:32:00,
2013-02-16 08:41:00,53.0,26.0,-100.00,NNE,18,7.0,10.0,35,-99.99,,,0.00,212.000000,,2013-02-16 16:41:00,
2013-02-16 09:11:00,59.0,25.0,-100.00,NNE,14,8.0,13.0,27,0.00,,,0.00,466.000000,,2013-02-16 17:11:00,
2013-02-16 09:21:00,59.0,25.0,-100.00,NNE,14,8.0,13.0,27,0.00,,,0.00,466.000000,,2013-02-16 17:21:00,
2013-02-16 09:31:00,59.0,25.0,-100.00,NNE,14,8.0,13.0,27,0.00,,,0.00,466.000000,,2013-02-16 17:31:00,
2013-02-16 09:41:00,59.0,25.0,-100.00,NNE,14,8.0,13.0,27,0.00,,,0.00,466.000000,,2013-02-16 17:41:00,
2013-02-16 10:11:00,64.0,28.0,-100.00,North,351,9.0,14.0,26,0.00,,,0.00,668.000000,,2013-02-16 18:11:00,
2013-02-16 10:21:00,64.0,28.0,-100.00,North,351,9.0,14.0,26,0.00,,,0.00,668.000000,,2013-02-16 18:21:00,
2013-02-16 10:32:00,64.0,28.0,-100.00,North,351,9.0,14.0,26,0.00,,,0.00,668.000000,,2013-02-16 18:32:00,
2013-02-16 10:41:00,64.0,28.0,-100.00,North,351,9.0,14.0,26,0.00,,,0.00,668.000000,,2013-02-16 18:41:00,
2013-02-16 11:11:00,70.0,23.0,-100.00,North,2,12.0,17.0,17,0.00,,,0.00,818.000000,,2013-02-16 19:11:00,
2013-02-16 11:21:00,70.0,23.0,-100.00,North,2,12.0,17.0,17,0.00,,,0.00,818.000000,,2013-02-16 19:21:00,
2013-02-16 11:31:00,70.0,23.0,-100.00,North,2,12.0,17.0,17,0.00,,,0.00,818.000000,,2013-02-16 19:31:00,
2013-02-16 11:42:00,70.0,23.0,-100.00,North,2,12.0,17.0,17,0.00,,,0.00,818.000000,,2013-02-16 19:42:00,
2013-02-16 12:11:00,73.0,23.0,-100.00,North,359,11.0,20.0,15,0.00,,,0.00,887.000000,,2013-02-16 20:11:00,
2013-02-16 12:21:00,73.0,23.0,-100.00,North,359,11.0,20.0,15,0.00,,,0.00,887.000000,,2013-02-16 20:21:00,
2013-02-16 12:32:00,73.0,23.0,-100.00,North,359,11.0,20.0,15,0.00,,,0.00,887.000000,,2013-02-16 20:32:00,
2013-02-16 12:42:00,73.0,23.0,-100.00,North,359,11.0,20.0,15,0.00,,,0.00,887.000000,,2013-02-16 20:42:00,
2013-02-16 13:11:00,76.0,23.0,-100.00,North,356,11.0,18.0,14,0.00,,,0.00,840.000000,,2013-02-16 21:11:00,
2013-02-16 13:21:00,76.0,23.0,-100.00,North,356,11.0,18.0,14,0.00,,,0.00,840.000000,,2013-02-16 21:21:00,
2013-02-16 13:31:00,76.0,23.0,-100.00,North,356,11.0,18.0,14,0.00,,,0.00,840.000000,,2013-02-16 21:31:00,
2013-02-16 13:41:00,76.0,23.0,-100.00,North,356,11.0,18.0,14,0.00,,,0.00,840.000000,,2013-02-16 21:41:00,
2013-02-16 14:11:00,78.0,21.0,-100.00,North,2,10.0,17.0,12,0.00,,,0.00,774.000000,,2013-02-16 22:11:00,
2013-02-16 14:21:00,78.0,21.0,-100.00,North,2,10.0,17.0,12,0.00,,,0.00,774.000000,,2013-02-16 22:21:00,
2013-02-16 14:32:00,78.0,21.0,-100.00,North,2,10.0,17.0,12,0.00,,,0.00,774.000000,,2013-02-16 22:32:00,
2013-02-16 14:42:00,78.0,21.0,-100.00,North,2,10.0,17.0,12,0.00,,,0.00,774.000000,,2013-02-16 22:42:00,
2013-02-16 15:11:00,78.0,17.0,-100.00,NNW,347,9.0,16.0,10,0.00,,,0.00,649.000000,,2013-02-16 23:11:00,
2013-02-16 15:21:00,78.0,17.0,-100.00,NNW,347,9.0,16.0,10,0.00,,,0.00,649.000000,,2013-02-16 23:21:00,
2013-02-16 15:31:00,78.0,17.0,-100.00,NNW,347,9.0,16.0,10,0.00,,,0.00,649.000000,,2013-02-16 23:31:00,
2013-02-16 15:42:00,78.0,17.0,-100.00,NNW,347,9.0,16.0,10,0.00,,,0.00,649.000000,,2013-02-16 23:42:00,
2013-02-16 16:12:00,76.0,18.0,-100.00,North,2,7.0,14.0,11,0.00,,,0.00,378.000000,,2013-02-17 00:12:00,
2013-02-16 16:21:00,76.0,18.0,-100.00,North,2,7.0,14.0,11,0.00,,,0.00,378.000000,,2013-02-17 00:21:00,
2013-02-16 16:31:00,76.0,18.0,-100.00,North,2,7.0,14.0,11,0.00,,,0.00,378.000000,,2013-02-17 00:31:00,
2013-02-16 16:41:00,76.0,18.0,-100.00,North,2,7.0,14.0,11,0.00,,,0.00,378.000000,,2013-02-17 00:41:00,
2013-02-16 17:11:00,77.0,20.0,-100.00,North,354,6.0,11.0,12,0.00,,,0.00,256.000000,,2013-02-17 01:11:00,
2013-02-16 17:21:00,77.0,20.0,-100.00,North,354,6.0,11.0,12,0.00,,,0.00,256.000000,,2013-02-17 01:21:00,
2013-02-16 17:31:00,77.0,20.0,-100.00,North,354,6.0,11.0,12,0.00,,,0.00,256.000000,,2013-02-17 01:31:00,
2013-02-16 17:41:00,77.0,20.0,-100.00,North,354,6.0,11.0,12,0.00,,,0.00,256.000000,,2013-02-17 01:41:00,
2013-02-16 18:11:00,67.0,23.0,-100.00,NNW,344,4.0,7.0,19,0.00,,,0.00,27.000000,,2013-02-17 02:11:00,
2013-02-16 18:21:00,67.0,23.0,-100.00,NNW,344,4.0,7.0,19,0.00,,,0.00,27.000000,,2013-02-17 02:21:00,
2013-02-16 18:41:00,67.0,23.0,-100.00,NNW,344,4.0,7.0,19,0.00,,,0.00,27.000000,,2013-02-17 02:41:00,
2013-02-16 19:11:00,58.0,26.0,-100.00,West,262,2.0,6.0,29,0.00,,,0.00,0.000000,,2013-02-17 03:11:00,
2013-02-16 20:11:00,50.0,25.0,-100.00,WNW,303,1.0,5.0,37,-99.99,,,0.00,0.000000,,2013-02-17 04:11:00,
2013-02-16 20:21:00,50.0,25.0,-100.00,WNW,303,1.0,5.0,37,-99.99,,,0.00,0.000000,,2013-02-17 04:21:00,
2013-02-16 21:12:00,48.0,25.0,-100.00,SE,132,3.0,4.0,41,-99.99,,,0.00,0.000000,,2013-02-17 05:12:00,
2013-02-16 22:11:00,49.0,20.0,-100.00,ESE,112,5.0,6.0,32,-99.99,,,0.00,0.000000,,2013-02-17 06:11:00,
2013-02-16 22:21:00,49.0,20.0,-100.00,ESE,112,5.0,6.0,32,-99.99,,,0.00,0.000000,,2013-02-17 06:21:00,
2013-02-16 23:11:00,46.0,25.0,-100.00,ESE,111,3.0,5.0,43,-99.99,,,0.00,0.000000,,2013-02-17 07:11:00,
2013-02-16 23:21:00,46.0,25.0,-100.00,ESE,111,3.0,5.0,43,-99.99,,,0.00,0.000000,,2013-02-17 07:21:00,